Time;durP1;ratioP1;P1;durP2;ratioP2;P2;SDS_P1;SDS_P2;PMS_P1;PMS_P2;Temp;Humidity;BMP_temperature;BMP_pressure;BME280_temperature;BME280_humidity;BME280_pressure;Samples;Min_cycle;Max_cycle;Signal;HPM_P1;HPM_P2
2020/12/23 00:02:01;;;;;;;;;;;7.70;99.90;;;;;;5054609;28;19924;-70
2020/12/23 00:04:27;;;;;;;;;;;7.50;99.90;;;;;;5054045;28;20288;-70
2020/12/23 00:06:54;;;;;;;;;;;7.60;99.90;;;;;;5054019;28;19924;-70
2020/12/23 00:09:20;;;;;;;;;;;7.60;99.90;;;;;;5053956;28;19932;-70
2020/12/23 00:11:50;;;;;;;;;;;7.50;99.90;;;;;;5054373;28;19925;-70
2020/12/23 00:14:16;;;;;;;;;;;7.40;99.90;;;;;;5053886;28;20431;-69
2020/12/23 00:16:42;;;;;;;;;;;7.60;99.90;;;;;;5054362;28;19947;-69
2020/12/23 00:19:09;;;;;;;;;;;7.70;99.90;;;;;;5054071;28;19929;-70
2020/12/23 00:21:35;;;;;;;;;;;7.80;99.90;;;;;;5054323;28;19925;-70
2020/12/23 00:24:01;;;;;;;;;;;7.90;99.90;;;;;;5053865;28;19932;-70
2020/12/23 00:26:27;;;;;;;;;;;8.00;99.90;;;;;;5053943;28;19978;-70
2020/12/23 00:28:53;;;;;;;;;;;8.00;99.90;;;;;;5054092;28;20401;-70
2020/12/23 00:31:19;;;;;;;;;;;8.00;99.90;;;;;;5053572;28;20443;-70
2020/12/23 00:33:45;;;;;;;;;;;8.00;99.90;;;;;;5053465;28;19929;-70
2020/12/23 00:36:13;;;;;;;;;;;7.90;99.90;;;;;;5053826;28;20377;-70
2020/12/23 00:38:39;;;;;;;;;;;7.80;99.90;;;;;;5053923;28;19928;-70
2020/12/23 00:41:07;;;;;;;;;;;7.90;99.90;;;;;;5053715;28;19931;-70
2020/12/23 00:43:33;;;;;;;;;;;7.80;99.90;;;;;;5053371;28;19960;-70
2020/12/23 00:45:59;;;;;;;;;;;7.80;99.90;;;;;;5053657;28;19929;-71
2020/12/23 00:48:25;;;;;;;;;;;7.80;99.90;;;;;;5053779;28;19925;-70
2020/12/23 00:50:51;;;;;;;;;;;7.70;99.90;;;;;;5053745;28;19925;-70
2020/12/23 00:53:17;;;;;;;;;;;7.70;99.90;;;;;;5053312;28;19978;-70
2020/12/23 00:55:43;;;;;;;;;;;7.80;99.90;;;;;;5053470;28;20012;-70
2020/12/23 00:58:09;;;;;;;;;;;7.70;99.90;;;;;;5053624;28;20331;-70
2020/12/23 01:00:35;;;;;;;;;;;7.60;99.90;;;;;;5053342;28;19924;-71
2020/12/23 01:03:01;;;;;;;;;;;7.70;99.90;;;;;;5053193;28;19924;-70
2020/12/23 01:05:27;;;;;;;;;;;7.60;99.90;;;;;;5053486;28;19931;-70
2020/12/23 01:07:53;;;;;;;;;;;7.60;99.90;;;;;;5053170;28;20343;-70
2020/12/23 01:10:26;;;;;;;;;;;7.60;99.90;;;;;;5053373;28;19935;-70
2020/12/23 01:12:53;;;;;;;;;;;7.50;99.90;;;;;;5052469;28;19924;-70
2020/12/23 01:15:22;;;;;;;;;;;7.40;99.90;;;;;;5052683;28;19924;-70
2020/12/23 01:17:48;;;;;;;;;;;7.40;99.90;;;;;;5052622;28;19967;-70
2020/12/23 01:20:17;;;;;;;;;;;7.40;99.90;;;;;;5052973;28;20356;-70
2020/12/23 01:22:46;;;;;;;;;;;7.40;99.90;;;;;;5052931;28;19928;-70
2020/12/23 01:25:15;;;;;;;;;;;7.50;99.90;;;;;;5033464;28;19925;-70
2020/12/23 01:30:58;;;;;;;;;;;7.40;99.90;;;;;;5052240;28;19959;-70
2020/12/23 01:33:24;;;;;;;;;;;7.40;99.90;;;;;;5050398;28;19925;-70
2020/12/23 01:54:16;;;;;;;;;;;7.40;99.90;;;;;;5052015;28;20369;-70
2020/12/23 01:56:46;;;;;;;;;;;7.40;99.90;;;;;;5052710;28;19924;-70
2020/12/23 02:26:49;;;;;;;;;;;7.10;99.90;;;;;;5052039;28;19927;-70
2020/12/23 02:44:31;;;;;;;;;;;7.10;99.90;;;;;;5055017;28;19974;-70
2020/12/23 02:47:05;;;;;;;;;;;7.10;99.90;;;;;;5055120;28;19925;-70
2020/12/23 02:49:31;;;;;;;;;;;7.10;99.90;;;;;;5056246;28;19967;-70
2020/12/23 02:51:57;;;;;;;;;;;7.20;99.90;;;;;;5056032;28;20289;-70
2020/12/23 02:54:27;;;;;;;;;;;7.10;99.90;;;;;;5054225;28;20011;-70
2020/12/23 02:56:53;;;;;;;;;;;7.10;99.90;;;;;;5055725;28;20392;-71
2020/12/23 02:59:19;;;;;;;;;;;7.10;99.90;;;;;;5053853;28;19982;-70
2020/12/23 03:01:50;;;;;;;;;;;7.10;99.90;;;;;;5055318;28;19928;-70
2020/12/23 03:04:24;;;;;;;;;;;7.00;99.90;;;;;;5055291;28;19995;-70
2020/12/23 03:09:34;;;;;;;;;;;7.00;99.90;;;;;;5055616;28;20013;-70
2020/12/23 03:12:02;;;;;;;;;;;7.10;99.90;;;;;;5055529;28;20293;-70
2020/12/23 03:14:30;;;;;;;;;;;7.00;99.90;;;;;;5053549;28;20335;-70
2020/12/23 03:17:04;;;;;;;;;;;7.00;99.90;;;;;;5055584;28;19987;-70
2020/12/23 03:19:33;;;;;;;;;;;6.90;99.90;;;;;;5054403;28;19955;-71
2020/12/23 03:22:06;;;;;;;;;;;6.90;99.90;;;;;;5054901;28;19936;-70
2020/12/23 03:27:47;;;;;;;;;;;6.90;99.90;;;;;;5054093;28;19935;-69
2020/12/23 03:30:20;;;;;;;;;;;7.00;99.90;;;;;;5055453;28;19925;-69
2020/12/23 03:32:54;;;;;;;;;;;6.90;99.90;;;;;;5054470;28;20425;-69
2020/12/23 03:35:24;;;;;;;;;;;7.00;99.90;;;;;;5054733;28;19925;-69
2020/12/23 03:37:50;;;;;;;;;;;7.00;99.90;;;;;;5054767;28;20404;-69
2020/12/23 03:40:19;;;;;;;;;;;6.90;99.90;;;;;;5019628;28;19955;-69
2020/12/23 03:42:45;;;;;;;;;;;6.90;99.90;;;;;;5054343;28;20386;-69
2020/12/23 04:03:15;;;;;;;;;;;6.90;99.90;;;;;;5053514;28;19942;-69
2020/12/23 04:05:43;;;;;;;;;;;7.00;99.90;;;;;;5054645;28;19929;-70
2020/12/23 04:08:13;;;;;;;;;;;7.00;99.90;;;;;;5052691;28;20377;-71
2020/12/23 04:10:43;;;;;;;;;;;7.00;99.90;;;;;;5018349;28;19972;-70
2020/12/23 04:13:14;;;;;;;;;;;7.00;99.90;;;;;;5051405;28;19982;-70
2020/12/23 04:15:51;;;;;;;;;;;7.00;99.90;;;;;;5053020;28;19925;-69
2020/12/23 04:18:23;;;;;;;;;;;7.00;99.90;;;;;;5054356;28;19972;-69
2020/12/23 06:19:44;;;;;;;;;;;7.00;99.90;;;;;;5050985;28;19923;-70
2020/12/23 06:22:10;;;;;;;;;;;7.00;99.90;;;;;;5052342;28;19936;-70
2020/12/23 06:24:42;;;;;;;;;;;6.90;99.90;;;;;;5052081;28;20289;-70
2020/12/23 06:36:19;;;;;;;;;;;6.80;99.90;;;;;;5049515;28;19927;-70
2020/12/23 06:38:45;;;;;;;;;;;6.70;99.90;;;;;;5049997;28;20384;-70
2020/12/23 06:41:26;;;;;;;;;;;6.70;99.90;;;;;;5050601;28;19925;-70
2020/12/23 06:44:04;;;;;;;;;;;6.70;99.90;;;;;;5051277;28;19931;-70
2020/12/23 06:49:35;;;;;;;;;;;6.70;99.90;;;;;;5051273;28;20422;-70
2020/12/23 06:52:27;;;;;;;;;;;6.60;99.90;;;;;;5052143;28;19932;-70
2020/12/23 06:54:54;;;;;;;;;;;6.60;99.90;;;;;;5051783;28;20388;-70
2020/12/23 07:00:44;;;;;;;;;;;6.70;99.90;;;;;;5050534;28;19927;-70
2020/12/23 07:03:25;;;;;;;;;;;6.70;99.90;;;;;;5051908;28;19924;-70
2020/12/23 07:05:51;;;;;;;;;;;6.60;99.90;;;;;;5048874;28;19925;-70
2020/12/23 07:08:30;;;;;;;;;;;6.60;99.90;;;;;;5051952;28;19977;-70
2020/12/23 07:17:05;;;;;;;;;;;6.60;99.90;;;;;;5052669;28;19919;-70
2020/12/23 07:19:42;;;;;;;;;;;6.60;99.90;;;;;;5055461;28;19931;-70
2020/12/23 07:31:23;;;;;;;;;;;6.50;99.90;;;;;;5054480;28;19947;-70
2020/12/23 07:33:52;;;;;;;;;;;6.50;99.90;;;;;;5053942;28;20344;-70
2020/12/23 07:36:19;;;;;;;;;;;6.60;99.90;;;;;;5055050;28;20043;-70
2020/12/23 07:38:52;;;;;;;;;;;6.60;99.90;;;;;;5054488;28;19929;-70
2020/12/23 07:41:27;;;;;;;;;;;6.50;99.90;;;;;;5054922;28;20011;-70
2020/12/23 07:50:26;;;;;;;;;;;6.70;99.90;;;;;;5054699;28;19919;-70
2020/12/23 07:53:07;;;;;;;;;;;6.70;99.90;;;;;;5053692;28;19987;-70
2020/12/23 07:55:42;;;;;;;;;;;6.70;99.90;;;;;;5054207;28;19947;-70
2020/12/23 07:58:10;;;;;;;;;;;6.90;99.90;;;;;;5054836;28;19925;-70
2020/12/23 08:00:39;;;;;;;;;;;7.00;99.90;;;;;;5053171;28;19925;-70
2020/12/23 08:06:12;;;;;;;;;;;6.90;99.90;;;;;;5054320;28;19920;-69
2020/12/23 08:18:20;;;;;;;;;;;7.00;99.90;;;;;;5054535;28;20288;-70
2020/12/23 08:23:55;;;;;;;;;;;7.10;99.90;;;;;;5052909;28;19923;-70
2020/12/23 08:26:23;;;;;;;;;;;7.20;99.90;;;;;;5053284;28;19925;-70
2020/12/23 08:28:49;;;;;;;;;;;7.30;99.90;;;;;;5052742;28;19928;-71
2020/12/23 08:31:24;;;;;;;;;;;7.40;99.90;;;;;;5054161;28;19991;-72
2020/12/23 08:33:59;;;;;;;;;;;7.40;99.90;;;;;;5053496;28;20278;-70
2020/12/23 08:36:25;;;;;;;;;;;7.40;99.90;;;;;;5053014;28;19951;-71
2020/12/23 08:38:55;;;;;;;;;;;7.30;99.90;;;;;;5053792;28;19925;-70
2020/12/23 08:41:22;;;;;;;;;;;7.40;99.90;;;;;;5054017;28;19971;-74
2020/12/23 08:43:54;;;;;;;;;;;7.40;99.90;;;;;;5051247;28;20050;-71
2020/12/23 08:51:59;;;;;;;;;;;7.70;99.90;;;;;;5313555;22;19926;-69
2020/12/23 08:54:25;;;;;;;;;;;7.70;99.90;;;;;;5016825;28;19925;-70
2020/12/23 08:56:51;;;;;;;;;;;7.70;99.90;;;;;;5013756;28;19936;-70
2020/12/23 08:59:17;;;;;;;;;;;7.80;99.90;;;;;;5013805;28;20023;-70
2020/12/23 09:01:43;;;;;;;;;;;7.70;99.90;;;;;;5015128;28;19932;-73
2020/12/23 09:04:10;;;;;;;;;;;7.70;99.90;;;;;;5033383;28;20384;-73
2020/12/23 09:06:39;;;;;;;;;;;7.70;99.90;;;;;;5033452;28;19925;-73
2020/12/23 09:09:06;;;;;;;;;;;7.60;99.90;;;;;;5033484;28;20355;-74
2020/12/23 09:11:37;;;;;;;;;;;7.60;99.90;;;;;;5032852;28;20759;-73
2020/12/23 09:14:11;;;;;;;;;;;7.60;99.90;;;;;;5033571;28;19965;-72
2020/12/23 09:16:37;;;;;;;;;;;7.60;99.90;;;;;;5032790;28;20445;-72
2020/12/23 09:19:03;;;;;;;;;;;7.70;99.90;;;;;;5033026;28;19925;-72
2020/12/23 09:21:29;;;;;;;;;;;7.70;99.90;;;;;;5032902;28;20008;-71
2020/12/23 09:24:04;;;;;;;;;;;7.80;99.90;;;;;;5033155;28;20023;-72
2020/12/23 09:26:31;;;;;;;;;;;7.70;99.90;;;;;;5033101;28;19925;-70
2020/12/23 09:28:57;;;;;;;;;;;7.70;99.90;;;;;;5032981;28;20450;-69
2020/12/23 09:31:24;;;;;;;;;;;7.60;99.90;;;;;;5032082;28;19944;-69
2020/12/23 09:33:50;;;;;;;;;;;7.70;99.90;;;;;;5031362;28;19925;-70
2020/12/23 09:36:16;;;;;;;;;;;7.70;99.90;;;;;;5033002;28;19925;-71
2020/12/23 09:38:43;;;;;;;;;;;7.70;99.90;;;;;;5032741;28;19936;-71
2020/12/23 09:41:10;;;;;;;;;;;7.70;99.90;;;;;;5032239;28;19925;-71
2020/12/23 09:43:37;;;;;;;;;;;7.80;99.90;;;;;;5032673;28;19925;-71
2020/12/23 09:46:05;;;;;;;;;;;7.80;99.90;;;;;;5032724;28;19972;-70
2020/12/23 09:48:31;;;;;;;;;;;7.90;99.90;;;;;;5032759;28;19932;-71
2020/12/23 09:50:57;;;;;;;;;;;8.00;99.90;;;;;;5032306;28;19925;-71
2020/12/23 09:53:24;;;;;;;;;;;8.10;99.90;;;;;;5032579;28;19925;-71
2020/12/23 09:55:50;;;;;;;;;;;8.10;99.90;;;;;;5032548;28;19929;-71
2020/12/23 09:58:16;;;;;;;;;;;8.20;99.90;;;;;;5032431;28;19925;-72
2020/12/23 10:00:44;;;;;;;;;;;8.10;99.90;;;;;;5032040;28;19965;-71
2020/12/23 10:03:10;;;;;;;;;;;8.20;99.90;;;;;;5032558;28;19925;-71
2020/12/23 10:05:36;;;;;;;;;;;8.30;99.90;;;;;;5032564;28;20003;-71
2020/12/23 10:08:02;;;;;;;;;;;8.40;99.90;;;;;;5032517;28;20016;-74
2020/12/23 10:10:28;;;;;;;;;;;8.50;99.90;;;;;;5032095;28;19979;-72
2020/12/23 10:12:54;;;;;;;;;;;8.50;99.90;;;;;;5032305;28;19925;-72
2020/12/23 10:15:20;;;;;;;;;;;8.40;99.90;;;;;;5032554;28;19932;-72
2020/12/23 10:17:47;;;;;;;;;;;8.50;99.90;;;;;;5032228;28;19964;-72
2020/12/23 10:20:13;;;;;;;;;;;8.50;99.90;;;;;;5031514;28;20016;-71
2020/12/23 10:22:39;;;;;;;;;;;8.50;99.90;;;;;;5031885;28;19957;-71
2020/12/23 10:25:05;;;;;;;;;;;8.50;99.90;;;;;;5032014;28;19961;-71
2020/12/23 10:27:31;;;;;;;;;;;8.60;99.90;;;;;;5031810;28;20320;-71
2020/12/23 10:29:57;;;;;;;;;;;8.60;99.90;;;;;;5031746;28;19931;-71
2020/12/23 10:32:24;;;;;;;;;;;8.60;99.90;;;;;;5031744;28;19925;-71
2020/12/23 10:34:51;;;;;;;;;;;8.60;99.90;;;;;;5031750;28;20016;-71
2020/12/23 10:37:19;;;;;;;;;;;8.60;99.90;;;;;;5031806;28;19940;-71
2020/12/23 10:39:45;;;;;;;;;;;8.50;99.90;;;;;;5031693;28;19925;-71
2020/12/23 10:42:11;;;;;;;;;;;8.50;99.90;;;;;;5031774;28;20282;-71
2020/12/23 10:44:37;;;;;;;;;;;8.50;99.90;;;;;;5031930;28;20059;-71
2020/12/23 10:47:03;;;;;;;;;;;8.30;99.90;;;;;;5031942;28;20327;-71
2020/12/23 10:49:29;;;;;;;;;;;8.30;99.90;;;;;;5032040;28;20301;-71
2020/12/23 10:51:57;;;;;;;;;;;8.10;99.90;;;;;;5032204;28;19925;-71
2020/12/23 10:54:23;;;;;;;;;;;8.10;99.90;;;;;;5035333;28;19929;-71
2020/12/23 10:56:49;;;;;;;;;;;8.10;99.90;;;;;;5035417;28;20379;-71
2020/12/23 10:59:15;;;;;;;;;;;8.30;99.90;;;;;;5035413;28;19929;-71
2020/12/23 11:01:41;;;;;;;;;;;8.30;99.90;;;;;;5035185;28;20007;-71
2020/12/23 11:04:07;;;;;;;;;;;8.40;99.90;;;;;;5035260;28;20285;-72
2020/12/23 11:06:33;;;;;;;;;;;8.40;99.90;;;;;;5035400;28;19926;-72
2020/12/23 11:09:00;;;;;;;;;;;8.40;99.90;;;;;;5035307;28;19957;-72
2020/12/23 11:11:27;;;;;;;;;;;8.30;99.90;;;;;;5034961;28;19956;-72
2020/12/23 11:13:53;;;;;;;;;;;8.20;99.90;;;;;;5035315;28;19929;-72
2020/12/23 11:16:19;;;;;;;;;;;8.20;99.90;;;;;;5035588;28;19925;-71
2020/12/23 11:18:46;;;;;;;;;;;8.30;99.90;;;;;;5035469;28;19925;-71
2020/12/23 11:21:12;;;;;;;;;;;8.20;99.90;;;;;;5035114;28;19932;-71
2020/12/23 11:23:38;;;;;;;;;;;8.10;99.90;;;;;;5035422;28;19925;-71
2020/12/23 11:26:05;;;;;;;;;;;8.10;99.90;;;;;;5035658;28;19940;-71
2020/12/23 11:28:32;;;;;;;;;;;8.10;99.90;;;;;;5035235;28;20381;-72
2020/12/23 11:30:59;;;;;;;;;;;8.10;99.90;;;;;;5034657;28;20317;-71
2020/12/23 11:33:26;;;;;;;;;;;8.10;99.90;;;;;;5034909;28;19925;-71
2020/12/23 11:35:52;;;;;;;;;;;8.10;99.90;;;;;;5034564;28;20432;-72
2020/12/23 11:38:18;;;;;;;;;;;8.10;99.90;;;;;;5034922;28;19928;-72
2020/12/23 11:40:44;;;;;;;;;;;8.10;99.90;;;;;;5034850;28;19983;-72
2020/12/23 11:43:10;;;;;;;;;;;8.10;99.90;;;;;;5034778;28;20301;-72
2020/12/23 11:45:36;;;;;;;;;;;8.10;99.90;;;;;;5035079;28;19932;-72
2020/12/23 11:48:02;;;;;;;;;;;8.10;99.90;;;;;;5035048;28;20286;-72
2020/12/23 11:50:28;;;;;;;;;;;8.10;99.90;;;;;;5034525;28;19929;-72
2020/12/23 11:52:54;;;;;;;;;;;8.20;99.90;;;;;;5034595;28;19925;-72
2020/12/23 11:55:20;;;;;;;;;;;8.20;99.90;;;;;;5035200;28;19932;-71
2020/12/23 11:57:46;;;;;;;;;;;8.20;99.90;;;;;;5035000;28;20381;-71
2020/12/23 12:00:13;;;;;;;;;;;8.10;99.90;;;;;;5034055;28;19929;-71
2020/12/23 12:02:39;;;;;;;;;;;8.00;99.90;;;;;;5034250;28;19925;-72
2020/12/23 12:05:05;;;;;;;;;;;8.00;99.90;;;;;;5033623;28;20039;-71
2020/12/23 12:07:31;;;;;;;;;;;8.00;99.90;;;;;;5034562;28;20040;-72
2020/12/23 12:09:57;;;;;;;;;;;7.90;99.90;;;;;;5034391;28;19926;-72
2020/12/23 12:12:23;;;;;;;;;;;;;;;;;;5034543;28;19988;-71
2020/12/23 12:14:49;;;;;;;;;;;7.90;99.90;;;;;;5034449;28;19926;-71
2020/12/23 12:17:16;;;;;;;;;;;7.90;99.90;;;;;;5034406;28;19978;-71
2020/12/23 12:19:42;;;;;;;;;;;7.80;99.90;;;;;;5034245;28;19937;-71
2020/12/23 12:22:08;;;;;;;;;;;7.80;99.90;;;;;;5033879;28;19933;-71
2020/12/23 12:24:34;;;;;;;;;;;7.80;99.90;;;;;;5034381;28;20488;-71
2020/12/23 12:27:01;;;;;;;;;;;7.90;99.90;;;;;;5034289;28;19932;-71
2020/12/23 12:29:27;;;;;;;;;;;7.90;99.90;;;;;;5034015;28;19932;-71
2020/12/23 12:31:53;;;;;;;;;;;7.90;99.90;;;;;;5033814;28;19925;-71
2020/12/23 12:34:21;;;;;;;;;;;8.00;99.90;;;;;;5034085;28;19925;-71
2020/12/23 12:36:47;;;;;;;;;;;7.90;99.90;;;;;;5034056;28;20329;-71
2020/12/23 12:39:13;;;;;;;;;;;7.90;99.90;;;;;;5034064;28;19929;-71
2020/12/23 12:41:39;;;;;;;;;;;7.90;99.90;;;;;;5033580;28;19925;-71
2020/12/23 12:44:05;;;;;;;;;;;7.90;99.90;;;;;;5033922;28;19925;-72
2020/12/23 12:46:31;;;;;;;;;;;7.80;99.90;;;;;;5033797;28;20015;-71
2020/12/23 12:48:57;;;;;;;;;;;7.80;99.90;;;;;;5033728;28;20297;-72
2020/12/23 12:51:25;;;;;;;;;;;7.90;99.90;;;;;;5033360;28;19932;-71
2020/12/23 12:54:00;;;;;;;;;;;7.80;99.90;;;;;;5033689;28;19980;-71
2020/12/23 12:56:26;;;;;;;;;;;7.80;99.90;;;;;;5033810;28;19925;-71
2020/12/23 12:58:54;;;;;;;;;;;7.90;99.90;;;;;;5033660;28;19930;-71
2020/12/23 13:01:20;;;;;;;;;;;7.90;99.90;;;;;;5033118;28;19940;-71
2020/12/23 13:03:46;;;;;;;;;;;7.90;99.90;;;;;;5033441;28;19932;-71
2020/12/23 13:06:12;;;;;;;;;;;8.00;99.90;;;;;;5033596;28;19925;-71
2020/12/23 13:08:39;;;;;;;;;;;8.00;99.90;;;;;;5033340;28;19925;-72
2020/12/23 13:11:05;;;;;;;;;;;8.00;99.90;;;;;;5033132;28;19926;-72
2020/12/23 13:13:31;;;;;;;;;;;7.90;99.90;;;;;;5033386;28;20346;-72
2020/12/23 13:15:58;;;;;;;;;;;7.90;99.90;;;;;;5032807;28;19925;-72
2020/12/23 13:18:24;;;;;;;;;;;7.80;99.90;;;;;;5033164;28;19932;-71
2020/12/23 13:20:50;;;;;;;;;;;7.80;99.90;;;;;;5032620;28;20338;-70
2020/12/23 13:23:16;;;;;;;;;;;7.80;99.90;;;;;;5032982;28;19929;-71
2020/12/23 13:25:43;;;;;;;;;;;7.80;99.90;;;;;;5033158;28;19929;-71
2020/12/23 13:28:09;;;;;;;;;;;7.90;99.90;;;;;;5033051;28;20015;-71
2020/12/23 13:30:35;;;;;;;;;;;7.80;99.90;;;;;;5032740;28;19932;-71
2020/12/23 13:33:01;;;;;;;;;;;7.80;99.90;;;;;;5032846;28;19932;-72
2020/12/23 13:35:27;;;;;;;;;;;7.80;99.90;;;;;;5033245;28;20377;-72
2020/12/23 13:37:53;;;;;;;;;;;7.80;99.90;;;;;;5033008;28;19925;-72
2020/12/23 13:40:19;;;;;;;;;;;7.70;99.90;;;;;;5032324;28;20456;-72
2020/12/23 13:42:46;;;;;;;;;;;7.70;99.90;;;;;;5032823;28;19925;-72
2020/12/23 13:45:12;;;;;;;;;;;7.60;99.90;;;;;;5032658;28;19936;-72
2020/12/23 13:47:38;;;;;;;;;;;7.70;99.90;;;;;;5032502;28;19925;-72
2020/12/23 13:50:04;;;;;;;;;;;7.70;99.90;;;;;;5032254;28;19948;-71
2020/12/23 13:52:30;;;;;;;;;;;7.70;99.90;;;;;;5032568;28;20389;-72
2020/12/23 13:54:56;;;;;;;;;;;7.70;99.90;;;;;;5032422;28;19932;-71
2020/12/23 13:57:23;;;;;;;;;;;7.70;99.90;;;;;;5032478;28;20075;-71
2020/12/23 13:59:50;;;;;;;;;;;7.70;99.90;;;;;;5032058;28;20333;-71
2020/12/23 14:02:16;;;;;;;;;;;7.70;99.90;;;;;;5032284;28;19932;-71
2020/12/23 14:04:42;;;;;;;;;;;7.60;99.90;;;;;;5032689;28;19955;-71
2020/12/23 14:07:08;;;;;;;;;;;7.60;99.90;;;;;;5032436;28;19979;-71
2020/12/23 14:09:34;;;;;;;;;;;7.60;99.90;;;;;;5032299;28;19925;-71
2020/12/23 14:12:03;;;;;;;;;;;7.60;99.90;;;;;;5031977;28;19925;-71
2020/12/23 14:14:29;;;;;;;;;;;7.60;99.90;;;;;;5032204;28;19933;-71
2020/12/23 14:16:56;;;;;;;;;;;7.60;99.90;;;;;;5032148;28;19925;-72
2020/12/23 14:19:22;;;;;;;;;;;7.50;99.90;;;;;;5032231;28;19937;-71
2020/12/23 14:21:48;;;;;;;;;;;7.60;99.90;;;;;;5032115;28;20303;-72
2020/12/23 14:24:14;;;;;;;;;;;7.60;99.90;;;;;;5032246;28;19932;-72
2020/12/23 14:26:40;;;;;;;;;;;7.60;99.90;;;;;;5032492;28;20479;-72
2020/12/23 14:29:06;;;;;;;;;;;7.60;99.90;;;;;;5036315;28;19925;-72
2020/12/23 14:31:32;;;;;;;;;;;7.50;99.90;;;;;;5035967;28;19975;-74
2020/12/23 14:34:01;;;;;;;;;;;7.50;99.90;;;;;;5019272;28;20828;-75
2020/12/23 14:36:28;;;;;;;;;;;7.50;99.90;;;;;;5013221;28;19932;-72
2020/12/23 14:38:53;;;;;;;;;;;7.50;99.90;;;;;;5015511;28;19929;-75
2020/12/23 14:41:19;;;;;;;;;;;7.50;99.90;;;;;;5014496;28;19925;-74
2020/12/23 14:43:45;;;;;;;;;;;7.50;99.90;;;;;;5014511;28;19940;-74
2020/12/23 14:46:12;;;;;;;;;;;7.50;99.90;;;;;;5014670;28;19949;-74
2020/12/23 14:48:38;;;;;;;;;;;7.50;99.90;;;;;;5014519;28;19948;-74
2020/12/23 14:51:04;;;;;;;;;;;7.50;99.90;;;;;;5032808;28;20373;-74
2020/12/23 14:53:30;;;;;;;;;;;7.60;99.90;;;;;;5033827;28;19925;-71
2020/12/23 14:55:56;;;;;;;;;;;7.60;99.90;;;;;;5034206;28;20289;-71
2020/12/23 14:58:22;;;;;;;;;;;7.50;99.90;;;;;;5034375;28;19929;-75
2020/12/23 15:00:48;;;;;;;;;;;7.50;99.90;;;;;;5033285;28;19925;-73
2020/12/23 15:03:14;;;;;;;;;;;7.60;99.90;;;;;;5034431;28;19929;-75
2020/12/23 15:05:40;;;;;;;;;;;7.60;99.90;;;;;;5033110;28;19999;-74
2020/12/23 15:08:07;;;;;;;;;;;7.50;99.90;;;;;;5034470;28;19932;-74
2020/12/23 15:10:33;;;;;;;;;;;7.50;99.90;;;;;;5032839;28;19933;-73
2020/12/23 15:12:59;;;;;;;;;;;7.50;99.90;;;;;;5033798;28;19925;-71
2020/12/23 15:15:25;;;;;;;;;;;7.50;99.90;;;;;;5033834;28;19925;-73
2020/12/23 15:17:51;;;;;;;;;;;7.50;99.90;;;;;;5032084;28;19975;-72
2020/12/23 15:20:17;;;;;;;;;;;7.50;99.90;;;;;;5017828;28;19925;-72
2020/12/23 15:22:43;;;;;;;;;;;7.40;99.90;;;;;;5031196;28;20297;-70
2020/12/23 15:25:11;;;;;;;;;;;7.40;99.90;;;;;;5033782;28;19932;-71
2020/12/23 15:27:37;;;;;;;;;;;7.40;99.90;;;;;;5015495;28;20309;-70
2020/12/23 15:30:03;;;;;;;;;;;7.40;99.90;;;;;;5013859;28;19925;-72
2020/12/23 15:32:29;;;;;;;;;;;7.40;99.90;;;;;;5013244;28;20020;-72
2020/12/23 15:34:55;;;;;;;;;;;7.40;99.90;;;;;;5010617;28;19925;-73
2020/12/23 15:37:21;;;;;;;;;;;7.30;99.90;;;;;;5013959;28;20301;-72
2020/12/23 15:39:48;;;;;;;;;;;7.30;99.90;;;;;;5013000;28;19925;-71
2020/12/23 15:42:14;;;;;;;;;;;7.30;99.90;;;;;;5013376;28;19941;-73
2020/12/23 15:44:40;;;;;;;;;;;7.30;99.90;;;;;;5012958;28;19956;-69
2020/12/23 15:47:06;;;;;;;;;;;7.30;99.90;;;;;;5028245;28;20405;-69
2020/12/23 15:49:33;;;;;;;;;;;7.30;99.90;;;;;;5023322;28;19984;-70
2020/12/23 15:52:00;;;;;;;;;;;7.30;99.90;;;;;;5021318;28;20271;-74
2020/12/23 15:54:27;;;;;;;;;;;7.30;99.90;;;;;;5032775;28;20340;-70
2020/12/23 15:56:53;;;;;;;;;;;7.30;99.90;;;;;;5033405;28;20588;-72
2020/12/23 15:59:21;;;;;;;;;;;7.30;99.90;;;;;;5033292;28;20432;-73
2020/12/23 16:01:48;;;;;;;;;;;7.30;99.90;;;;;;5032641;28;19925;-73
2020/12/23 16:04:14;;;;;;;;;;;7.30;99.90;;;;;;5033113;28;20304;-73
2020/12/23 16:06:41;;;;;;;;;;;7.30;99.90;;;;;;5020653;28;19933;-73
2020/12/23 16:09:07;;;;;;;;;;;7.20;99.90;;;;;;5013208;28;20400;-73
2020/12/23 16:11:33;;;;;;;;;;;7.20;99.90;;;;;;5012698;28;19925;-75
2020/12/23 16:14:02;;;;;;;;;;;7.20;99.90;;;;;;5013136;28;19926;-70
2020/12/23 16:16:29;;;;;;;;;;;7.20;99.90;;;;;;5012449;28;19932;-74
2020/12/23 16:18:55;;;;;;;;;;;7.20;99.90;;;;;;5013014;28;19933;-73
2020/12/23 16:21:24;;;;;;;;;;;7.20;99.90;;;;;;5012621;28;20392;-72
2020/12/23 16:23:50;;;;;;;;;;;7.20;99.90;;;;;;5012764;28;19976;-74
2020/12/23 16:26:16;;;;;;;;;;;7.30;99.90;;;;;;5012876;28;19925;-73
2020/12/23 16:28:42;;;;;;;;;;;7.20;99.90;;;;;;5013880;28;19972;-73
2020/12/23 16:31:08;;;;;;;;;;;7.30;99.90;;;;;;5032266;28;19969;-73
2020/12/23 16:33:34;;;;;;;;;;;7.20;99.90;;;;;;5032215;28;20373;-75
2020/12/23 16:36:00;;;;;;;;;;;7.20;99.90;;;;;;5029458;28;19925;-73
2020/12/23 16:38:26;;;;;;;;;;;7.20;99.90;;;;;;5032116;28;19932;-73
2020/12/23 16:40:52;;;;;;;;;;;7.20;99.90;;;;;;5032018;28;19925;-73
2020/12/23 16:43:18;;;;;;;;;;;7.20;99.90;;;;;;5032241;28;20290;-72
2020/12/23 16:45:45;;;;;;;;;;;7.20;99.90;;;;;;5031379;28;19925;-71
2020/12/23 16:48:11;;;;;;;;;;;7.20;99.90;;;;;;5032296;28;20059;-74
2020/12/23 16:50:37;;;;;;;;;;;7.10;99.90;;;;;;5012400;28;19933;-74
2020/12/23 16:53:03;;;;;;;;;;;7.10;99.90;;;;;;5012415;28;19926;-73
2020/12/23 16:55:29;;;;;;;;;;;7.00;99.90;;;;;;5011940;28;19932;-73
2020/12/23 16:57:55;;;;;;;;;;;7.10;99.90;;;;;;5012840;28;19979;-70
2020/12/23 17:00:21;;;;;;;;;;;7.10;99.90;;;;;;5011819;28;19933;-71
2020/12/23 17:02:47;;;;;;;;;;;7.20;99.90;;;;;;5030540;28;19932;-73
2020/12/23 17:05:19;;;;;;;;;;;7.20;99.90;;;;;;5032093;28;19994;-73
2020/12/23 17:07:46;;;;;;;;;;;7.20;99.90;;;;;;5031613;28;20031;-71
2020/12/23 17:10:12;;;;;;;;;;;7.20;99.90;;;;;;5031659;28;19936;-74
2020/12/23 17:12:38;;;;;;;;;;;7.20;99.90;;;;;;5031394;28;19925;-74
2020/12/23 17:15:04;;;;;;;;;;;7.20;99.90;;;;;;5032069;28;19925;-71
2020/12/23 17:17:30;;;;;;;;;;;7.20;99.90;;;;;;5012793;28;19925;-70
2020/12/23 17:19:56;;;;;;;;;;;7.20;99.90;;;;;;5011323;28;20306;-71
2020/12/23 17:22:22;;;;;;;;;;;7.10;99.90;;;;;;5012121;28;19929;-73
2020/12/23 17:24:49;;;;;;;;;;;7.10;99.90;;;;;;5012111;28;19933;-73
2020/12/23 17:27:16;;;;;;;;;;;7.10;99.90;;;;;;5012045;28;20341;-74
2020/12/23 17:29:42;;;;;;;;;;;7.20;99.90;;;;;;5011175;28;20153;-73
2020/12/23 17:32:08;;;;;;;;;;;7.20;99.90;;;;;;5011552;28;19926;-76
2020/12/23 17:34:34;;;;;;;;;;;7.10;99.90;;;;;;5008292;28;20286;-74
2020/12/23 17:37:00;;;;;;;;;;;7.20;99.90;;;;;;5012225;28;19925;-73
2020/12/23 17:39:26;;;;;;;;;;;7.20;99.90;;;;;;5011505;28;19932;-72
2020/12/23 17:41:53;;;;;;;;;;;7.20;99.90;;;;;;5011017;28;20001;-74
2020/12/23 17:44:20;;;;;;;;;;;7.20;99.90;;;;;;5011612;28;19925;-74
2020/12/23 17:46:51;;;;;;;;;;;7.20;99.90;;;;;;5011144;28;20032;-74
2020/12/23 17:49:17;;;;;;;;;;;7.20;99.90;;;;;;5011348;28;19925;-75
2020/12/23 17:51:45;;;;;;;;;;;7.20;99.90;;;;;;5021135;28;20396;-74
2020/12/23 17:54:11;;;;;;;;;;;7.20;99.90;;;;;;5030915;28;20012;-73
2020/12/23 17:56:38;;;;;;;;;;;7.20;99.90;;;;;;5030426;28;19925;-74
2020/12/23 17:59:09;;;;;;;;;;;7.20;99.90;;;;;;5031022;28;19925;-74
2020/12/23 18:01:36;;;;;;;;;;;7.20;99.90;;;;;;5030051;28;19960;-74
2020/12/23 18:04:04;;;;;;;;;;;7.20;99.90;;;;;;5031247;28;19928;-74
2020/12/23 18:06:31;;;;;;;;;;;7.20;99.90;;;;;;5029828;28;19925;-74
2020/12/23 18:08:57;;;;;;;;;;;7.20;99.90;;;;;;5035087;28;19925;-75
2020/12/23 18:11:25;;;;;;;;;;;7.20;99.90;;;;;;5030639;28;20376;-75
2020/12/23 18:13:51;;;;;;;;;;;7.30;99.90;;;;;;5030856;28;19948;-75
2020/12/23 18:16:18;;;;;;;;;;;7.30;99.90;;;;;;5018472;28;19925;-74
2020/12/23 18:18:44;;;;;;;;;;;7.30;99.90;;;;;;5010593;28;20317;-74
2020/12/23 18:21:10;;;;;;;;;;;7.30;99.90;;;;;;5010578;28;19925;-75
2020/12/23 18:23:36;;;;;;;;;;;7.30;99.90;;;;;;5010714;28;20396;-75
2020/12/23 18:26:02;;;;;;;;;;;7.40;99.90;;;;;;5011425;28;19936;-76
2020/12/23 18:28:29;;;;;;;;;;;7.40;99.90;;;;;;5010550;28;20396;-75
2020/12/23 18:30:55;;;;;;;;;;;7.40;99.90;;;;;;5010921;28;19926;-77
2020/12/23 18:33:22;;;;;;;;;;;7.40;99.90;;;;;;5012398;28;19929;-75
2020/12/23 18:35:48;;;;;;;;;;;7.40;99.90;;;;;;5007653;28;19926;-76
2020/12/23 18:38:14;;;;;;;;;;;7.50;99.90;;;;;;5011336;28;19926;-76
2020/12/23 18:40:40;;;;;;;;;;;7.50;99.90;;;;;;5012890;28;20659;-76
2020/12/23 18:43:06;;;;;;;;;;;7.50;99.90;;;;;;5030892;28;20344;-76
2020/12/23 18:45:33;;;;;;;;;;;7.50;99.90;;;;;;5028278;28;19932;-75
2020/12/23 18:47:59;;;;;;;;;;;7.60;99.90;;;;;;5012336;28;19975;-75
2020/12/23 18:50:27;;;;;;;;;;;7.60;99.90;;;;;;5011890;28;19925;-75
2020/12/23 18:52:53;;;;;;;;;;;7.60;99.90;;;;;;5012557;28;19933;-75
2020/12/23 18:55:20;;;;;;;;;;;7.60;99.90;;;;;;5012460;28;19983;-76
2020/12/23 18:57:46;;;;;;;;;;;7.60;99.90;;;;;;5012301;28;19926;-75